sensor_id;sensor_type;location;lat;lon;timestamp;pressure;altitude;pressure_sealevel;temperature;humidity
40850;BME280;26571;41.610;25.380;2023-05-16T00:00:06;98144.47;;;15.95;100.00
40850;BME280;26571;41.610;25.380;2023-05-16T00:02:36;98147.78;;;15.84;100.00
40850;BME280;26571;41.610;25.380;2023-05-16T00:05:04;98115.75;;;15.66;100.00
40850;BME280;26571;41.610;25.380;2023-05-16T00:07:31;98145.94;;;15.85;100.00
40850;BME280;26571;41.610;25.380;2023-05-16T00:09:56;98134.91;;;15.81;100.00
40850;BME280;26571;41.610;25.380;2023-05-16T00:12:22;98133.28;;;15.80;100.00
40850;BME280;26571;41.610;25.380;2023-05-16T00:14:48;98133.09;;;15.75;100.00
40850;BME280;26571;41.610;25.380;2023-05-16T00:17:14;98137.38;;;15.76;100.00
40850;BME280;26571;41.610;25.380;2023-05-16T00:19:43;98135.56;;;15.76;100.00
40850;BME280;26571;41.610;25.380;2023-05-16T00:22:11;98138.19;;;15.70;100.00
40850;BME280;26571;41.610;25.380;2023-05-16T00:24:37;98116.78;;;15.71;100.00
40850;BME280;26571;41.610;25.380;2023-05-16T00:27:02;98131.66;;;15.79;100.00
40850;BME280;26571;41.610;25.380;2023-05-16T00:29:30;98134.69;;;15.89;100.00
40850;BME280;26571;41.610;25.380;2023-05-16T00:31:55;98136.94;;;15.92;100.00
40850;BME280;26571;41.610;25.380;2023-05-16T00:34:21;98137.13;;;15.91;100.00
40850;BME280;26571;41.610;25.380;2023-05-16T00:36:48;98132.06;;;15.83;100.00
40850;BME280;26571;41.610;25.380;2023-05-16T00:39:14;98136.56;;;15.82;100.00
40850;BME280;26571;41.610;25.380;2023-05-16T00:41:40;98095.34;;;15.53;100.00
40850;BME280;26571;41.610;25.380;2023-05-16T00:44:05;98156.56;;;15.65;100.00
40850;BME280;26571;41.610;25.380;2023-05-16T00:46:31;98134.72;;;15.76;100.00
40850;BME280;26571;41.610;25.380;2023-05-16T00:48:56;98143.09;;;15.73;100.00
40850;BME280;26571;41.610;25.380;2023-05-16T00:51:22;98131.66;;;15.79;100.00
40850;BME280;26571;41.610;25.380;2023-05-16T00:53:48;98129.84;;;15.73;100.00
40850;BME280;26571;41.610;25.380;2023-05-16T00:56:14;98125.38;;;15.67;100.00
40850;BME280;26571;41.610;25.380;2023-05-16T00:58:39;98131.88;;;15.64;100.00
40850;BME280;26571;41.610;25.380;2023-05-16T01:01:05;98131.06;;;15.57;100.00
40850;BME280;26571;41.610;25.380;2023-05-16T01:03:32;98133.72;;;15.64;100.00
40850;BME280;26571;41.610;25.380;2023-05-16T01:05:57;98120.81;;;15.61;100.00
40850;BME280;26571;41.610;25.380;2023-05-16T01:08:23;98127.59;;;15.63;100.00
40850;BME280;26571;41.610;25.380;2023-05-16T01:10:59;98123.09;;;15.64;100.00
40850;BME280;26571;41.610;25.380;2023-05-16T01:13:35;98127.16;;;15.60;100.00
40850;BME280;26571;41.610;25.380;2023-05-16T01:16:15;98128.00;;;15.54;100.00
40850;BME280;26571;41.610;25.380;2023-05-16T01:18:55;98120.22;;;15.45;100.00
40850;BME280;26571;41.610;25.380;2023-05-16T01:27:19;98119.81;;;15.48;100.00
40850;BME280;26571;41.610;25.380;2023-05-16T01:29:45;98121.06;;;15.52;100.00
40850;BME280;26571;41.610;25.380;2023-05-16T01:32:11;98125.94;;;15.56;100.00
40850;BME280;26571;41.610;25.380;2023-05-16T01:34:38;98099.22;;;15.37;100.00
40850;BME280;26571;41.610;25.380;2023-05-16T01:40:14;98125.13;;;15.35;100.00
40850;BME280;26571;41.610;25.380;2023-05-16T01:42:34;98085.97;;;15.11;100.00
40850;BME280;26571;41.610;25.380;2023-05-16T01:47:44;98112.06;;;15.40;100.00
40850;BME280;26571;41.610;25.380;2023-05-16T01:50:16;98114.94;;;15.32;100.00
40850;BME280;26571;41.610;25.380;2023-05-16T01:53:05;98108.81;;;15.38;100.00
40850;BME280;26571;41.610;25.380;2023-05-16T01:58:06;98105.34;;;15.38;100.00
40850;BME280;26571;41.610;25.380;2023-05-16T02:00:32;98099.41;;;15.36;100.00
40850;BME280;26571;41.610;25.380;2023-05-16T02:02:58;98090.84;;;15.20;100.00
40850;BME280;26571;41.610;25.380;2023-05-16T02:05:23;98092.91;;;15.12;100.00
40850;BME280;26571;41.610;25.380;2023-05-16T02:07:49;98085.53;;;15.00;100.00
40850;BME280;26571;41.610;25.380;2023-05-16T02:10:14;98082.69;;;14.95;100.00
40850;BME280;26571;41.610;25.380;2023-05-16T02:12:40;98079.03;;;14.90;100.00
40850;BME280;26571;41.610;25.380;2023-05-16T02:15:06;98078.59;;;14.80;100.00
40850;BME280;26571;41.610;25.380;2023-05-16T02:17:31;98028.41;;;14.52;100.00
40850;BME280;26571;41.610;25.380;2023-05-16T02:19:57;98074.13;;;14.87;100.00
40850;BME280;26571;41.610;25.380;2023-05-16T02:22:22;98074.53;;;14.90;100.00
40850;BME280;26571;41.610;25.380;2023-05-16T02:24:48;98073.28;;;14.80;100.00
40850;BME280;26571;41.610;25.380;2023-05-16T02:27:13;98052.50;;;14.63;100.00
40850;BME280;26571;41.610;25.380;2023-05-16T02:29:38;98071.25;;;14.75;100.00
40850;BME280;26571;41.610;25.380;2023-05-16T02:32:04;98066.16;;;14.73;100.00
40850;BME280;26571;41.610;25.380;2023-05-16T02:34:30;98069.22;;;14.77;100.00
40850;BME280;26571;41.610;25.380;2023-05-16T02:36:55;98063.50;;;14.80;100.00
40850;BME280;26571;41.610;25.380;2023-05-16T02:39:20;98054.97;;;14.78;100.00
40850;BME280;26571;41.610;25.380;2023-05-16T02:41:46;98056.81;;;14.78;100.00
40850;BME280;26571;41.610;25.380;2023-05-16T02:44:11;98062.91;;;14.78;100.00
40850;BME280;26571;41.610;25.380;2023-05-16T02:46:37;98065.75;;;14.77;100.00
40850;BME280;26571;41.610;25.380;2023-05-16T02:49:02;98042.53;;;14.72;100.00
40850;BME280;26571;41.610;25.380;2023-05-16T02:51:28;98063.94;;;14.77;100.00
40850;BME280;26571;41.610;25.380;2023-05-16T02:53:54;98047.63;;;14.67;100.00
40850;BME280;26571;41.610;25.380;2023-05-16T02:56:21;98053.31;;;14.70;100.00
40850;BME280;26571;41.610;25.380;2023-05-16T02:58:48;98048.22;;;14.69;100.00
40850;BME280;26571;41.610;25.380;2023-05-16T03:01:15;98014.72;;;14.41;100.00
40850;BME280;26571;41.610;25.380;2023-05-16T03:03:40;98052.88;;;14.60;100.00
40850;BME280;26571;41.610;25.380;2023-05-16T03:06:06;98052.69;;;14.62;100.00
40850;BME280;26571;41.610;25.380;2023-05-16T03:08:32;98049.25;;;14.68;100.00
40850;BME280;26571;41.610;25.380;2023-05-16T03:10:58;98041.47;;;14.66;100.00
40850;BME280;26571;41.610;25.380;2023-05-16T03:13:23;98039.88;;;14.72;100.00
40850;BME280;26571;41.610;25.380;2023-05-16T03:15:49;98030.31;;;14.78;100.00
40850;BME280;26571;41.610;25.380;2023-05-16T03:18:15;98014.19;;;14.53;100.00
40850;BME280;26571;41.610;25.380;2023-05-16T03:20:40;98040.28;;;14.62;100.00
40850;BME280;26571;41.610;25.380;2023-05-16T03:23:06;98045.56;;;14.69;100.00
40850;BME280;26571;41.610;25.380;2023-05-16T03:25:35;98044.53;;;14.70;100.00
40850;BME280;26571;41.610;25.380;2023-05-16T03:28:02;98038.66;;;14.68;100.00
40850;BME280;26571;41.610;25.380;2023-05-16T03:30:27;98044.16;;;14.73;100.00
40850;BME280;26571;41.610;25.380;2023-05-16T03:32:54;98051.88;;;14.81;100.00
40850;BME280;26571;41.610;25.380;2023-05-16T03:35:19;98048.03;;;14.84;100.00
40850;BME280;26571;41.610;25.380;2023-05-16T03:37:45;98051.72;;;14.83;100.00
40850;BME280;26571;41.610;25.380;2023-05-16T03:40:11;98053.97;;;14.92;100.00
40850;BME280;26571;41.610;25.380;2023-05-16T03:42:36;98052.94;;;14.93;100.00
40850;BME280;26571;41.610;25.380;2023-05-16T03:45:03;98057.00;;;14.96;100.00
40850;BME280;26571;41.610;25.380;2023-05-16T03:47:29;98050.06;;;15.02;100.00
40850;BME280;26571;41.610;25.380;2023-05-16T03:49:55;98070.06;;;15.11;100.00
40850;BME280;26571;41.610;25.380;2023-05-16T03:52:22;98058.63;;;15.10;100.00
40850;BME280;26571;41.610;25.380;2023-05-16T03:54:47;98062.31;;;15.16;100.00
40850;BME280;26571;41.610;25.380;2023-05-16T03:57:12;97892.28;;;14.13;100.00
40850;BME280;26571;41.610;25.380;2023-05-16T03:59:38;98054.16;;;15.11;100.00
40850;BME280;26571;41.610;25.380;2023-05-16T04:02:03;98067.41;;;15.17;100.00
40850;BME280;26571;41.610;25.380;2023-05-16T04:04:29;98069.63;;;15.20;100.00
40850;BME280;26571;41.610;25.380;2023-05-16T04:06:54;98059.06;;;15.07;100.00
40850;BME280;26571;41.610;25.380;2023-05-16T04:09:20;98065.19;;;15.08;100.00
40850;BME280;26571;41.610;25.380;2023-05-16T04:11:45;98072.50;;;15.06;100.00
40850;BME280;26571;41.610;25.380;2023-05-16T04:14:11;98073.53;;;15.05;100.00
40850;BME280;26571;41.610;25.380;2023-05-16T04:16:36;98045.78;;;15.00;100.00
40850;BME280;26571;41.610;25.380;2023-05-16T04:19:01;98063.53;;;15.20;100.00
40850;BME280;26571;41.610;25.380;2023-05-16T04:21:28;98059.84;;;15.21;100.00
40850;BME280;26571;41.610;25.380;2023-05-16T04:23:53;98055.38;;;15.28;100.00
40850;BME280;26571;41.610;25.380;2023-05-16T04:26:18;98060.25;;;15.44;100.00
40850;BME280;26571;41.610;25.380;2023-05-16T04:28:46;98054.09;;;15.50;100.00
40850;BME280;26571;41.610;25.380;2023-05-16T04:31:12;98058.19;;;15.73;100.00
40850;BME280;26571;41.610;25.380;2023-05-16T04:33:38;98056.50;;;15.85;100.00
40850;BME280;26571;41.610;25.380;2023-05-16T04:36:04;98060.13;;;16.04;100.00
40850;BME280;26571;41.610;25.380;2023-05-16T04:38:30;98056.28;;;16.38;100.00
40850;BME280;26571;41.610;25.380;2023-05-16T04:40:56;98057.63;;;16.92;100.00
40850;BME280;26571;41.610;25.380;2023-05-16T04:43:21;98058.03;;;17.39;100.00
40850;BME280;26571;41.610;25.380;2023-05-16T04:45:47;98062.63;;;17.75;100.00
40850;BME280;26571;41.610;25.380;2023-05-16T04:48:13;98032.38;;;17.88;100.00
40850;BME280;26571;41.610;25.380;2023-05-16T04:50:39;98066.69;;;17.78;97.52
40850;BME280;26571;41.610;25.380;2023-05-16T04:53:05;98061.53;;;17.58;97.77
40850;BME280;26571;41.610;25.380;2023-05-16T04:55:30;98067.44;;;17.42;98.21
40850;BME280;26571;41.610;25.380;2023-05-16T04:57:56;98065.53;;;17.24;99.02
40850;BME280;26571;41.610;25.380;2023-05-16T05:00:21;98073.81;;;17.16;99.70
40850;BME280;26571;41.610;25.380;2023-05-16T05:02:47;98071.41;;;17.08;100.00
40850;BME280;26571;41.610;25.380;2023-05-16T05:05:12;98076.00;;;16.94;100.00
40850;BME280;26571;41.610;25.380;2023-05-16T05:07:38;98073.06;;;16.77;100.00
40850;BME280;26571;41.610;25.380;2023-05-16T05:10:04;98071.66;;;16.68;100.00
40850;BME280;26571;41.610;25.380;2023-05-16T05:12:31;98076.56;;;16.64;100.00
40850;BME280;26571;41.610;25.380;2023-05-16T05:14:56;98047.69;;;16.43;100.00
40850;BME280;26571;41.610;25.380;2023-05-16T05:17:21;98075.00;;;16.57;100.00
40850;BME280;26571;41.610;25.380;2023-05-16T05:19:47;98065.81;;;16.52;100.00
40850;BME280;26571;41.610;25.380;2023-05-16T05:22:13;98071.38;;;16.44;100.00
40850;BME280;26571;41.610;25.380;2023-05-16T05:24:39;98072.22;;;16.38;100.00
40850;BME280;26571;41.610;25.380;2023-05-16T05:27:05;98068.19;;;16.29;100.00
40850;BME280;26571;41.610;25.380;2023-05-16T05:29:30;98059.47;;;16.09;100.00
40850;BME280;26571;41.610;25.380;2023-05-16T05:31:56;98060.34;;;16.02;100.00
40850;BME280;26571;41.610;25.380;2023-05-16T05:34:21;98063.84;;;15.96;100.00
40850;BME280;26571;41.610;25.380;2023-05-16T05:36:46;98040.00;;;15.70;100.00
40850;BME280;26571;41.610;25.380;2023-05-16T05:39:12;98053.25;;;15.83;100.00
40850;BME280;26571;41.610;25.380;2023-05-16T05:41:37;98053.66;;;15.80;100.00
40850;BME280;26571;41.610;25.380;2023-05-16T05:44:03;98042.22;;;15.80;100.00
40850;BME280;26571;41.610;25.380;2023-05-16T05:46:28;98018.16;;;15.61;100.00
40850;BME280;26571;41.610;25.380;2023-05-16T05:48:54;98012.44;;;15.71;100.00
40850;BME280;26571;41.610;25.380;2023-05-16T05:51:20;98025.28;;;15.87;100.00
40850;BME280;26571;41.610;25.380;2023-05-16T05:53:45;98049.09;;;16.07;100.00
40850;BME280;26571;41.610;25.380;2023-05-16T05:56:11;98038.81;;;16.17;100.00
40850;BME280;26571;41.610;25.380;2023-05-16T05:58:37;98062.50;;;16.19;100.00
40850;BME280;26571;41.610;25.380;2023-05-16T06:01:03;98047.16;;;16.21;100.00
40850;BME280;26571;41.610;25.380;2023-05-16T06:03:28;98040.59;;;16.30;100.00
40850;BME280;26571;41.610;25.380;2023-05-16T06:05:54;98038.75;;;16.31;100.00
40850;BME280;26571;41.610;25.380;2023-05-16T06:08:20;98037.56;;;16.26;100.00
40850;BME280;26571;41.610;25.380;2023-05-16T06:10:45;98027.91;;;16.32;100.00
40850;BME280;26571;41.610;25.380;2023-05-16T06:13:11;98019.94;;;16.32;100.00
40850;BME280;26571;41.610;25.380;2023-05-16T06:15:36;98030.06;;;16.48;100.00
40850;BME280;26571;41.610;25.380;2023-05-16T06:18:02;98033.13;;;16.45;100.00
40850;BME280;26571;41.610;25.380;2023-05-16T06:20:27;98032.50;;;16.50;100.00
40850;BME280;26571;41.610;25.380;2023-05-16T06:22:52;98036.38;;;16.54;100.00
40850;BME280;26571;41.610;25.380;2023-05-16T06:25:18;97986.00;;;16.34;100.00
40850;BME280;26571;41.610;25.380;2023-05-16T06:27:44;98000.66;;;16.43;100.00
40850;BME280;26571;41.610;25.380;2023-05-16T06:30:09;98038.91;;;16.74;100.00
40850;BME280;26571;41.610;25.380;2023-05-16T06:32:35;98037.63;;;16.83;100.00
40850;BME280;26571;41.610;25.380;2023-05-16T06:35:01;98040.19;;;16.96;100.00
40850;BME280;26571;41.610;25.380;2023-05-16T06:37:27;98050.56;;;17.04;100.00
40850;BME280;26571;41.610;25.380;2023-05-16T06:39:52;98052.31;;;17.17;100.00
40850;BME280;26571;41.610;25.380;2023-05-16T06:42:18;98047.69;;;17.31;100.00
40850;BME280;26571;41.610;25.380;2023-05-16T06:44:45;98048.66;;;17.37;100.00
40850;BME280;26571;41.610;25.380;2023-05-16T06:47:10;98027.28;;;17.43;100.00
40850;BME280;26571;41.610;25.380;2023-05-16T06:49:36;98029.22;;;17.54;100.00
40850;BME280;26571;41.610;25.380;2023-05-16T06:52:01;98036.91;;;17.63;100.00
40850;BME280;26571;41.610;25.380;2023-05-16T06:54:27;98027.91;;;17.64;100.00
40850;BME280;26571;41.610;25.380;2023-05-16T06:56:52;98033.69;;;17.61;100.00
40850;BME280;26571;41.610;25.380;2023-05-16T06:59:18;98021.31;;;17.66;100.00
40850;BME280;26571;41.610;25.380;2023-05-16T07:01:43;98020.78;;;17.57;100.00
40850;BME280;26571;41.610;25.380;2023-05-16T07:04:09;98032.63;;;17.62;100.00
40850;BME280;26571;41.610;25.380;2023-05-16T07:06:34;98023.19;;;17.66;100.00
40850;BME280;26571;41.610;25.380;2023-05-16T07:09:00;98035.47;;;17.85;100.00
40850;BME280;26571;41.610;25.380;2023-05-16T07:11:26;98009.44;;;17.87;100.00
40850;BME280;26571;41.610;25.380;2023-05-16T07:13:51;97978.16;;;17.82;100.00
40850;BME280;26571;41.610;25.380;2023-05-16T07:16:17;97997.50;;;18.08;100.00
40850;BME280;26571;41.610;25.380;2023-05-16T07:18:43;97966.22;;;17.85;100.00
40850;BME280;26571;41.610;25.380;2023-05-16T07:21:08;97986.31;;;17.99;100.00
40850;BME280;26571;41.610;25.380;2023-05-16T07:23:33;98007.56;;;18.06;100.00
40850;BME280;26571;41.610;25.380;2023-05-16T07:25:59;98004.00;;;18.12;100.00
40850;BME280;26571;41.610;25.380;2023-05-16T07:28:24;97974.28;;;18.27;100.00
40850;BME280;26571;41.610;25.380;2023-05-16T07:30:50;97997.19;;;18.58;99.05
40850;BME280;26571;41.610;25.380;2023-05-16T07:33:15;98002.25;;;18.78;96.06
40850;BME280;26571;41.610;25.380;2023-05-16T07:35:41;97980.81;;;18.84;95.34
40850;BME280;26571;41.610;25.380;2023-05-16T07:38:06;97997.19;;;19.11;95.41
40850;BME280;26571;41.610;25.380;2023-05-16T07:40:32;98021.34;;;19.40;92.32
40850;BME280;26571;41.610;25.380;2023-05-16T07:42:57;98018.50;;;19.58;92.11
40850;BME280;26571;41.610;25.380;2023-05-16T07:45:23;97993.81;;;19.63;88.16
40850;BME280;26571;41.610;25.380;2023-05-16T07:47:49;97998.22;;;19.69;89.83
40850;BME280;26571;41.610;25.380;2023-05-16T07:50:14;98003.28;;;19.82;88.38
40850;BME280;26571;41.610;25.380;2023-05-16T07:52:39;98019.63;;;19.98;84.96
40850;BME280;26571;41.610;25.380;2023-05-16T07:55:05;98009.75;;;19.98;85.13
40850;BME280;26571;41.610;25.380;2023-05-16T07:57:31;98015.31;;;20.37;84.07
40850;BME280;26571;41.610;25.380;2023-05-16T07:59:57;98020.28;;;20.45;81.84
40850;BME280;26571;41.610;25.380;2023-05-16T08:02:22;98025.25;;;20.53;82.52
40850;BME280;26571;41.610;25.380;2023-05-16T08:04:55;98038.50;;;20.77;81.64
40850;BME280;26571;41.610;25.380;2023-05-16T08:07:21;98035.03;;;20.93;79.55
40850;BME280;26571;41.610;25.380;2023-05-16T08:09:46;98024.81;;;21.07;78.85
40850;BME280;26571;41.610;25.380;2023-05-16T08:12:11;98020.22;;;21.36;77.12
40850;BME280;26571;41.610;25.380;2023-05-16T08:14:38;98022.69;;;21.59;77.27
40850;BME280;26571;41.610;25.380;2023-05-16T08:17:03;98014.72;;;21.64;77.49
40850;BME280;26571;41.610;25.380;2023-05-16T08:19:29;98014.47;;;21.88;75.15
40850;BME280;26571;41.610;25.380;2023-05-16T08:21:54;98004.81;;;22.09;72.12
40850;BME280;26571;41.610;25.380;2023-05-16T08:24:20;97992.84;;;22.16;72.20
40850;BME280;26571;41.610;25.380;2023-05-16T08:26:46;97987.78;;;22.47;72.78
40850;BME280;26571;41.610;25.380;2023-05-16T08:29:11;97995.44;;;22.60;71.28
40850;BME280;26571;41.610;25.380;2023-05-16T08:31:36;97999.00;;;22.39;69.89
40850;BME280;26571;41.610;25.380;2023-05-16T08:34:02;97998.38;;;22.32;71.36
40850;BME280;26571;41.610;25.380;2023-05-16T08:36:31;97984.00;;;22.43;70.53
40850;BME280;26571;41.610;25.380;2023-05-16T08:38:59;97984.06;;;22.48;69.76
40850;BME280;26571;41.610;25.380;2023-05-16T08:41:25;98001.25;;;22.79;67.46
40850;BME280;26571;41.610;25.380;2023-05-16T08:43:51;97994.00;;;22.80;66.84
40850;BME280;26571;41.610;25.380;2023-05-16T08:46:20;97995.28;;;23.04;68.19
40850;BME280;26571;41.610;25.380;2023-05-16T08:48:46;97988.50;;;22.96;66.42
40850;BME280;26571;41.610;25.380;2023-05-16T08:51:16;97962.91;;;22.84;67.50
40850;BME280;26571;41.610;25.380;2023-05-16T08:53:44;97992.13;;;23.12;67.64
40850;BME280;26571;41.610;25.380;2023-05-16T08:56:15;97999.13;;;23.13;63.59
40850;BME280;26571;41.610;25.380;2023-05-16T08:58:41;97983.63;;;22.61;65.08
40850;BME280;26571;41.610;25.380;2023-05-16T09:01:07;97994.34;;;22.61;66.84
40850;BME280;26571;41.610;25.380;2023-05-16T09:03:37;97980.81;;;22.19;65.25
40850;BME280;26571;41.610;25.380;2023-05-16T09:06:06;97967.47;;;22.02;67.13
40850;BME280;26571;41.610;25.380;2023-05-16T09:08:31;97968.09;;;22.09;68.97
40850;BME280;26571;41.610;25.380;2023-05-16T09:10:57;97967.97;;;21.99;70.42
40850;BME280;26571;41.610;25.380;2023-05-16T09:13:24;97966.28;;;22.15;71.92
40850;BME280;26571;41.610;25.380;2023-05-16T09:16:15;97965.25;;;21.94;73.03
40850;BME280;26571;41.610;25.380;2023-05-16T09:18:54;97967.22;;;21.82;74.56
40850;BME280;26571;41.610;25.380;2023-05-16T09:21:21;97964.38;;;21.66;74.78
40850;BME280;26571;41.610;25.380;2023-05-16T09:23:49;97961.97;;;21.48;75.62
40850;BME280;26571;41.610;25.380;2023-05-16T09:26:15;97946.56;;;21.33;76.72
40850;BME280;26571;41.610;25.380;2023-05-16T09:28:42;97953.59;;;21.39;77.60
40850;BME280;26571;41.610;25.380;2023-05-16T09:33:45;97930.16;;;21.52;74.08
40850;BME280;26571;41.610;25.380;2023-05-16T09:36:11;97918.03;;;21.44;75.90
40850;BME280;26571;41.610;25.380;2023-05-16T09:38:38;97918.72;;;21.17;78.17
40850;BME280;26571;41.610;25.380;2023-05-16T09:41:03;97899.91;;;21.12;80.38
40850;BME280;26571;41.610;25.380;2023-05-16T09:43:29;97879.97;;;21.03;80.56
40850;BME280;26571;41.610;25.380;2023-05-16T09:45:58;97903.09;;;20.92;81.10
40850;BME280;26571;41.610;25.380;2023-05-16T09:48:24;97885.69;;;20.73;82.74
40850;BME280;26571;41.610;25.380;2023-05-16T09:50:52;97885.69;;;20.90;81.51
40850;BME280;26571;41.610;25.380;2023-05-16T09:53:32;97883.63;;;21.14;81.37
40850;BME280;26571;41.610;25.380;2023-05-16T09:56:06;97885.38;;;21.47;77.90
40850;BME280;26571;41.610;25.380;2023-05-16T09:58:34;97898.72;;;21.91;75.99
40850;BME280;26571;41.610;25.380;2023-05-16T10:01:00;97916.03;;;22.32;74.79
40850;BME280;26571;41.610;25.380;2023-05-16T10:03:27;97904.56;;;22.69;73.47
40850;BME280;26571;41.610;25.380;2023-05-16T10:05:53;97905.66;;;23.15;71.84
40850;BME280;26571;41.610;25.380;2023-05-16T10:08:24;97901.81;;;23.54;70.97
40850;BME280;26571;41.610;25.380;2023-05-16T10:10:51;97901.66;;;23.81;68.28
40850;BME280;26571;41.610;25.380;2023-05-16T10:13:29;97907.66;;;24.03;65.53
40850;BME280;26571;41.610;25.380;2023-05-16T10:15:56;97893.38;;;23.82;64.29
40850;BME280;26571;41.610;25.380;2023-05-16T10:18:28;97902.63;;;23.49;64.84
40850;BME280;26571;41.610;25.380;2023-05-16T10:20:54;97906.34;;;23.43;66.64
40850;BME280;26571;41.610;25.380;2023-05-16T10:23:24;97913.19;;;23.13;67.82
40850;BME280;26571;41.610;25.380;2023-05-16T10:25:50;97896.50;;;22.69;66.83
40850;BME280;26571;41.610;25.380;2023-05-16T10:28:16;97887.06;;;22.66;68.36
40850;BME280;26571;41.610;25.380;2023-05-16T10:30:45;97875.34;;;22.73;67.47
40850;BME280;26571;41.610;25.380;2023-05-16T10:33:12;97881.84;;;22.87;66.91
40850;BME280;26571;41.610;25.380;2023-05-16T10:35:38;97884.50;;;22.82;66.98
40850;BME280;26571;41.610;25.380;2023-05-16T10:38:05;97885.34;;;22.87;64.96
40850;BME280;26571;41.610;25.380;2023-05-16T10:40:32;97882.38;;;22.84;65.89
40850;BME280;26571;41.610;25.380;2023-05-16T10:43:00;97861.13;;;22.77;64.52
40850;BME280;26571;41.610;25.380;2023-05-16T10:45:25;97845.28;;;22.76;66.30
40850;BME280;26571;41.610;25.380;2023-05-16T10:50:36;97831.06;;;23.23;64.46
40850;BME280;26571;41.610;25.380;2023-05-16T10:53:31;97834.88;;;23.47;64.23
40850;BME280;26571;41.610;25.380;2023-05-16T11:09:07;97809.56;;;23.12;65.10
40850;BME280;26571;41.610;25.380;2023-05-16T11:14:25;97853.16;;;23.40;65.15
40850;BME280;26571;41.610;25.380;2023-05-16T11:16:56;97855.56;;;23.41;64.94
40850;BME280;26571;41.610;25.380;2023-05-16T11:19:49;97850.94;;;23.27;63.50
40850;BME280;26571;41.610;25.380;2023-05-16T11:22:32;97836.41;;;23.17;65.95
40850;BME280;26571;41.610;25.380;2023-05-16T11:25:03;97839.66;;;23.25;66.58
40850;BME280;26571;41.610;25.380;2023-05-16T11:27:30;97848.88;;;23.44;65.81
40850;BME280;26571;41.610;25.380;2023-05-16T11:32:35;97851.13;;;23.67;64.71
40850;BME280;26571;41.610;25.380;2023-05-16T11:35:01;97853.03;;;23.87;63.58
40850;BME280;26571;41.610;25.380;2023-05-16T11:37:27;97849.50;;;23.77;61.74
40850;BME280;26571;41.610;25.380;2023-05-16T11:39:58;97849.50;;;23.71;62.44
40850;BME280;26571;41.610;25.380;2023-05-16T11:42:24;97848.44;;;23.67;61.61
40850;BME280;26571;41.610;25.380;2023-05-16T11:45:11;97839.31;;;23.73;62.92
40850;BME280;26571;41.610;25.380;2023-05-16T11:47:39;97850.59;;;23.76;64.59
40850;BME280;26571;41.610;25.380;2023-05-16T11:50:13;97836.59;;;23.63;66.09
40850;BME280;26571;41.610;25.380;2023-05-16T11:52:39;97839.25;;;23.58;66.00
40850;BME280;26571;41.610;25.380;2023-05-16T11:55:07;97825.78;;;23.53;65.55
40850;BME280;26571;41.610;25.380;2023-05-16T11:57:36;97816.63;;;23.44;66.60
40850;BME280;26571;41.610;25.380;2023-05-16T12:00:14;97829.00;;;23.55;65.89
40850;BME280;26571;41.610;25.380;2023-05-16T12:02:44;97836.59;;;23.63;66.06
40850;BME280;26571;41.610;25.380;2023-05-16T12:05:12;97835.75;;;23.63;66.38
40850;BME280;26571;41.610;25.380;2023-05-16T12:07:37;97806.16;;;23.42;66.47
40850;BME280;26571;41.610;25.380;2023-05-16T12:10:06;97831.22;;;23.63;68.10
40850;BME280;26571;41.610;25.380;2023-05-16T12:12:33;97834.47;;;23.76;67.79
40850;BME280;26571;41.610;25.380;2023-05-16T12:15:04;97848.72;;;23.91;66.27
40850;BME280;26571;41.610;25.380;2023-05-16T12:17:31;97845.78;;;23.93;65.10
40850;BME280;26571;41.610;25.380;2023-05-16T12:19:57;97853.31;;;24.01;64.68
40850;BME280;26571;41.610;25.380;2023-05-16T12:22:24;97854.94;;;24.02;64.58
40850;BME280;26571;41.610;25.380;2023-05-16T12:24:50;97846.63;;;24.14;65.51
40850;BME280;26571;41.610;25.380;2023-05-16T12:27:23;97838.28;;;24.20;65.42
40850;BME280;26571;41.610;25.380;2023-05-16T12:29:49;97826.97;;;24.18;65.39
40850;BME280;26571;41.610;25.380;2023-05-16T12:32:17;97809.25;;;24.07;66.17
40850;BME280;26571;41.610;25.380;2023-05-16T12:34:50;97804.66;;;24.08;65.87
40850;BME280;26571;41.610;25.380;2023-05-16T12:37:16;97802.78;;;23.98;65.60
40850;BME280;26571;41.610;25.380;2023-05-16T12:39:42;97797.09;;;23.74;66.60
40850;BME280;26571;41.610;25.380;2023-05-16T12:42:07;97817.81;;;23.73;69.52
40850;BME280;26571;41.610;25.380;2023-05-16T12:44:34;97813.97;;;23.59;69.70
40850;BME280;26571;41.610;25.380;2023-05-16T12:47:01;97778.44;;;23.37;70.37
40850;BME280;26571;41.610;25.380;2023-05-16T12:49:26;97787.91;;;23.60;69.96
40850;BME280;26571;41.610;25.380;2023-05-16T12:51:54;97808.16;;;24.03;68.73
40850;BME280;26571;41.610;25.380;2023-05-16T12:54:21;97799.81;;;24.30;67.01
40850;BME280;26571;41.610;25.380;2023-05-16T12:56:47;97795.78;;;24.53;66.47
40850;BME280;26571;41.610;25.380;2023-05-16T12:59:13;97792.50;;;24.71;64.50
40850;BME280;26571;41.610;25.380;2023-05-16T13:01:39;97777.97;;;24.72;64.08
40850;BME280;26571;41.610;25.380;2023-05-16T13:04:06;97767.19;;;24.78;66.16
40850;BME280;26571;41.610;25.380;2023-05-16T13:06:32;97779.56;;;24.73;64.46
40850;BME280;26571;41.610;25.380;2023-05-16T13:08:58;97777.97;;;24.72;64.16
40850;BME280;26571;41.610;25.380;2023-05-16T13:11:24;97753.81;;;24.47;64.62
40850;BME280;26571;41.610;25.380;2023-05-16T13:13:50;97770.19;;;24.56;63.49
40850;BME280;26571;41.610;25.380;2023-05-16T13:16:15;97802.16;;;24.88;62.90
40850;BME280;26571;41.610;25.380;2023-05-16T13:18:41;97794.06;;;24.93;63.93
40850;BME280;26571;41.610;25.380;2023-05-16T13:21:06;97775.31;;;24.62;63.19